sensor_id;sensor_type;location;lat;lon;timestamp;P1;durP1;ratioP1;P2;durP2;ratioP2
18677;SDS011;9469;51.114;13.914;2022-08-01T00:00:13;3.27;;;2.50;;
18677;SDS011;9469;51.114;13.914;2022-08-01T00:05:21;3.87;;;2.27;;
18677;SDS011;9469;51.114;13.914;2022-08-01T00:10:26;3.80;;;2.60;;
18677;SDS011;9469;51.114;13.914;2022-08-01T00:15:31;4.17;;;2.30;;
18677;SDS011;9469;51.114;13.914;2022-08-01T00:20:39;3.23;;;2.47;;
18677;SDS011;9469;51.114;13.914;2022-08-01T00:25:44;4.10;;;2.80;;
18677;SDS011;9469;51.114;13.914;2022-08-01T00:30:48;4.43;;;2.60;;
18677;SDS011;9469;51.114;13.914;2022-08-01T00:35:56;3.53;;;2.63;;
18677;SDS011;9469;51.114;13.914;2022-08-01T00:41:01;4.73;;;2.50;;
18677;SDS011;9469;51.114;13.914;2022-08-01T00:46:06;4.33;;;2.80;;
18677;SDS011;9469;51.114;13.914;2022-08-01T00:51:14;4.20;;;2.63;;
18677;SDS011;9469;51.114;13.914;2022-08-01T00:56:19;5.17;;;2.73;;
18677;SDS011;9469;51.114;13.914;2022-08-01T01:01:25;6.73;;;2.70;;
18677;SDS011;9469;51.114;13.914;2022-08-01T01:06:44;4.57;;;2.90;;
18677;SDS011;9469;51.114;13.914;2022-08-01T01:11:57;3.97;;;2.93;;
18677;SDS011;9469;51.114;13.914;2022-08-01T01:17:12;5.67;;;2.97;;
18677;SDS011;9469;51.114;13.914;2022-08-01T01:22:50;3.30;;;3.00;;
18677;SDS011;9469;51.114;13.914;2022-08-01T01:28:03;5.93;;;2.97;;
18677;SDS011;9469;51.114;13.914;2022-08-01T01:33:19;5.30;;;3.00;;
18677;SDS011;9469;51.114;13.914;2022-08-01T01:38:32;5.57;;;3.13;;
18677;SDS011;9469;51.114;13.914;2022-08-01T01:43:43;4.40;;;2.80;;
18677;SDS011;9469;51.114;13.914;2022-08-01T01:48:53;4.57;;;3.30;;
18677;SDS011;9469;51.114;13.914;2022-08-01T01:54:00;3.27;;;2.90;;
18677;SDS011;9469;51.114;13.914;2022-08-01T01:59:06;3.20;;;2.90;;
18677;SDS011;9469;51.114;13.914;2022-08-01T02:04:14;5.07;;;3.20;;
18677;SDS011;9469;51.114;13.914;2022-08-01T02:09:20;3.30;;;3.10;;
18677;SDS011;9469;51.114;13.914;2022-08-01T02:14:27;8.63;;;3.40;;
18677;SDS011;9469;51.114;13.914;2022-08-01T02:19:36;3.60;;;3.20;;
18677;SDS011;9469;51.114;13.914;2022-08-01T02:24:43;3.97;;;3.40;;
18677;SDS011;9469;51.114;13.914;2022-08-01T02:29:52;3.70;;;3.33;;
18677;SDS011;9469;51.114;13.914;2022-08-01T02:35:04;5.40;;;3.67;;
18677;SDS011;9469;51.114;13.914;2022-08-01T02:40:12;3.70;;;3.27;;
18677;SDS011;9469;51.114;13.914;2022-08-01T02:45:19;3.73;;;3.23;;
18677;SDS011;9469;51.114;13.914;2022-08-01T02:50:29;4.57;;;3.43;;
18677;SDS011;9469;51.114;13.914;2022-08-01T02:55:38;7.30;;;3.70;;
18677;SDS011;9469;51.114;13.914;2022-08-01T03:00:46;6.97;;;3.20;;
18677;SDS011;9469;51.114;13.914;2022-08-01T03:05:55;4.93;;;3.13;;
18677;SDS011;9469;51.114;13.914;2022-08-01T03:11:02;4.10;;;3.03;;
18677;SDS011;9469;51.114;13.914;2022-08-01T03:16:09;6.77;;;3.77;;
18677;SDS011;9469;51.114;13.914;2022-08-01T03:21:19;5.93;;;3.90;;
18677;SDS011;9469;51.114;13.914;2022-08-01T03:26:28;3.47;;;3.17;;
18677;SDS011;9469;51.114;13.914;2022-08-01T03:31:35;2.97;;;2.73;;
18677;SDS011;9469;51.114;13.914;2022-08-01T03:36:48;7.27;;;2.87;;
18677;SDS011;9469;51.114;13.914;2022-08-01T03:47:20;3.97;;;2.77;;
18677;SDS011;9469;51.114;13.914;2022-08-01T03:52:32;6.37;;;2.87;;
18677;SDS011;9469;51.114;13.914;2022-08-01T03:57:39;6.07;;;3.53;;
18677;SDS011;9469;51.114;13.914;2022-08-01T04:02:45;4.47;;;3.13;;
18677;SDS011;9469;51.114;13.914;2022-08-01T04:07:54;4.93;;;3.10;;
18677;SDS011;9469;51.114;13.914;2022-08-01T04:13:01;3.53;;;2.90;;
18677;SDS011;9469;51.114;13.914;2022-08-01T04:18:06;4.77;;;2.77;;
18677;SDS011;9469;51.114;13.914;2022-08-01T04:23:14;3.33;;;2.97;;
18677;SDS011;9469;51.114;13.914;2022-08-01T04:28:20;4.97;;;3.00;;
18677;SDS011;9469;51.114;13.914;2022-08-01T04:33:28;5.30;;;3.13;;
18677;SDS011;9469;51.114;13.914;2022-08-01T04:38:42;7.30;;;2.77;;
18677;SDS011;9469;51.114;13.914;2022-08-01T04:43:50;4.27;;;3.13;;
18677;SDS011;9469;51.114;13.914;2022-08-01T04:48:58;3.73;;;2.67;;
18677;SDS011;9469;51.114;13.914;2022-08-01T04:54:08;3.70;;;3.10;;
18677;SDS011;9469;51.114;13.914;2022-08-01T04:59:13;2.80;;;2.60;;
18677;SDS011;9469;51.114;13.914;2022-08-01T05:04:30;9.93;;;2.80;;
18677;SDS011;9469;51.114;13.914;2022-08-01T05:09:38;3.93;;;2.80;;
18677;SDS011;9469;51.114;13.914;2022-08-01T05:14:47;4.07;;;3.10;;
18677;SDS011;9469;51.114;13.914;2022-08-01T05:19:52;6.67;;;3.20;;
18677;SDS011;9469;51.114;13.914;2022-08-01T05:25:00;4.30;;;2.77;;
18677;SDS011;9469;51.114;13.914;2022-08-01T05:30:07;3.00;;;2.70;;
18677;SDS011;9469;51.114;13.914;2022-08-01T05:35:13;4.10;;;2.90;;
18677;SDS011;9469;51.114;13.914;2022-08-01T05:40:21;3.70;;;3.23;;
18677;SDS011;9469;51.114;13.914;2022-08-01T05:45:26;3.60;;;2.47;;
18677;SDS011;9469;51.114;13.914;2022-08-01T05:50:32;3.67;;;2.83;;
18677;SDS011;9469;51.114;13.914;2022-08-01T05:55:40;4.47;;;2.60;;
18677;SDS011;9469;51.114;13.914;2022-08-01T06:00:45;6.40;;;2.70;;
18677;SDS011;9469;51.114;13.914;2022-08-01T06:05:50;3.00;;;2.50;;
18677;SDS011;9469;51.114;13.914;2022-08-01T06:10:58;4.10;;;2.90;;
18677;SDS011;9469;51.114;13.914;2022-08-01T06:16:04;3.87;;;2.90;;
18677;SDS011;9469;51.114;13.914;2022-08-01T06:21:09;4.13;;;2.63;;
18677;SDS011;9469;51.114;13.914;2022-08-01T06:26:19;3.97;;;2.73;;
18677;SDS011;9469;51.114;13.914;2022-08-01T06:31:24;2.77;;;2.53;;
18677;SDS011;9469;51.114;13.914;2022-08-01T06:36:34;6.27;;;2.63;;
18677;SDS011;9469;51.114;13.914;2022-08-01T06:41:41;4.70;;;2.90;;
18677;SDS011;9469;51.114;13.914;2022-08-01T06:46:48;4.27;;;2.87;;
18677;SDS011;9469;51.114;13.914;2022-08-01T06:51:54;4.83;;;2.90;;
18677;SDS011;9469;51.114;13.914;2022-08-01T06:57:02;5.23;;;3.33;;
18677;SDS011;9469;51.114;13.914;2022-08-01T07:02:09;4.63;;;3.80;;
18677;SDS011;9469;51.114;13.914;2022-08-01T07:07:16;5.80;;;3.27;;
18677;SDS011;9469;51.114;13.914;2022-08-01T07:12:24;4.23;;;3.30;;
18677;SDS011;9469;51.114;13.914;2022-08-01T07:17:29;3.57;;;3.23;;
18677;SDS011;9469;51.114;13.914;2022-08-01T07:22:34;4.70;;;3.27;;
18677;SDS011;9469;51.114;13.914;2022-08-01T07:27:42;4.13;;;3.23;;
18677;SDS011;9469;51.114;13.914;2022-08-01T07:32:47;3.50;;;3.20;;
18677;SDS011;9469;51.114;13.914;2022-08-01T07:37:54;5.77;;;2.93;;
18677;SDS011;9469;51.114;13.914;2022-08-01T07:43:02;6.03;;;4.63;;
18677;SDS011;9469;51.114;13.914;2022-08-01T07:48:07;5.50;;;2.80;;
18677;SDS011;9469;51.114;13.914;2022-08-01T07:53:12;3.20;;;2.90;;
18677;SDS011;9469;51.114;13.914;2022-08-01T07:58:20;4.03;;;3.10;;
18677;SDS011;9469;51.114;13.914;2022-08-01T08:03:25;5.10;;;4.03;;
18677;SDS011;9469;51.114;13.914;2022-08-01T08:08:30;2.40;;;2.20;;
18677;SDS011;9469;51.114;13.914;2022-08-01T08:13:39;8.27;;;5.00;;
18677;SDS011;9469;51.114;13.914;2022-08-01T08:18:44;10.27;;;5.33;;
18677;SDS011;9469;51.114;13.914;2022-08-01T08:23:48;2.80;;;2.60;;
18677;SDS011;9469;51.114;13.914;2022-08-01T08:29:09;5.40;;;2.83;;
18677;SDS011;9469;51.114;13.914;2022-08-01T08:34:14;4.77;;;3.40;;
18677;SDS011;9469;51.114;13.914;2022-08-01T08:39:19;3.53;;;2.77;;
18677;SDS011;9469;51.114;13.914;2022-08-01T08:44:26;3.73;;;2.43;;
18677;SDS011;9469;51.114;13.914;2022-08-01T08:49:32;2.40;;;2.20;;
18677;SDS011;9469;51.114;13.914;2022-08-01T08:54:37;7.27;;;4.70;;
18677;SDS011;9469;51.114;13.914;2022-08-01T08:59:47;4.50;;;3.63;;
18677;SDS011;9469;51.114;13.914;2022-08-01T09:04:58;3.13;;;2.30;;
18677;SDS011;9469;51.114;13.914;2022-08-01T09:10:04;4.83;;;2.13;;
18677;SDS011;9469;51.114;13.914;2022-08-01T09:15:14;3.17;;;2.40;;
18677;SDS011;9469;51.114;13.914;2022-08-01T09:20:22;2.40;;;1.77;;
18677;SDS011;9469;51.114;13.914;2022-08-01T09:25:30;1.40;;;1.30;;
18677;SDS011;9469;51.114;13.914;2022-08-01T09:31:07;3.53;;;2.03;;
18677;SDS011;9469;51.114;13.914;2022-08-01T09:36:14;1.57;;;1.40;;
18677;SDS011;9469;51.114;13.914;2022-08-01T09:41:31;2.77;;;1.13;;
18677;SDS011;9469;51.114;13.914;2022-08-01T09:46:51;3.17;;;1.23;;
18677;SDS011;9469;51.114;13.914;2022-08-01T09:51:58;3.83;;;1.70;;
18677;SDS011;9469;51.114;13.914;2022-08-01T09:57:14;1.73;;;1.30;;
18677;SDS011;9469;51.114;13.914;2022-08-01T10:02:31;2.80;;;2.20;;
18677;SDS011;9469;51.114;13.914;2022-08-01T10:13:01;2.40;;;1.57;;
18677;SDS011;9469;51.114;13.914;2022-08-01T10:18:12;3.80;;;2.20;;
18677;SDS011;9469;51.114;13.914;2022-08-01T10:23:27;2.03;;;1.90;;
18677;SDS011;9469;51.114;13.914;2022-08-01T10:28:40;1.83;;;1.73;;
18677;SDS011;9469;51.114;13.914;2022-08-01T10:33:52;1.60;;;1.50;;
18677;SDS011;9469;51.114;13.914;2022-08-01T10:38:57;1.93;;;1.40;;
18677;SDS011;9469;51.114;13.914;2022-08-01T10:44:03;1.57;;;1.30;;
18677;SDS011;9469;51.114;13.914;2022-08-01T10:49:15;2.00;;;1.07;;
18677;SDS011;9469;51.114;13.914;2022-08-01T10:54:24;1.05;;;0.80;;
18677;SDS011;9469;51.114;13.914;2022-08-01T10:59:32;0.80;;;0.80;;
18677;SDS011;9469;51.114;13.914;2022-08-01T11:05:04;0.50;;;0.50;;
18677;SDS011;9469;51.114;13.914;2022-08-01T11:10:19;3.25;;;0.80;;
18677;SDS011;9469;51.114;13.914;2022-08-01T11:15:28;1.73;;;0.73;;
18677;SDS011;9469;51.114;13.914;2022-08-01T11:20:36;0.70;;;0.70;;
18677;SDS011;9469;51.114;13.914;2022-08-01T11:31:25;4.15;;;0.90;;
18677;SDS011;9469;51.114;13.914;2022-08-01T11:36:40;2.50;;;0.60;;
18677;SDS011;9469;51.114;13.914;2022-08-01T11:42:17;0.52;;;0.50;;
18677;SDS011;9469;51.114;13.914;2022-08-01T11:53:02;1.50;;;0.75;;
18677;SDS011;9469;51.114;13.914;2022-08-01T11:58:08;1.48;;;0.57;;
18677;SDS011;9469;51.114;13.914;2022-08-01T12:03:28;2.15;;;0.70;;
18677;SDS011;9469;51.114;13.914;2022-08-01T12:08:39;1.50;;;0.70;;
18677;SDS011;9469;51.114;13.914;2022-08-01T12:13:44;1.58;;;0.75;;
18677;SDS011;9469;51.114;13.914;2022-08-01T12:18:51;1.92;;;0.77;;
18677;SDS011;9469;51.114;13.914;2022-08-01T12:24:02;2.83;;;1.17;;
18677;SDS011;9469;51.114;13.914;2022-08-01T12:29:08;1.75;;;0.50;;
18677;SDS011;9469;51.114;13.914;2022-08-01T12:34:24;2.58;;;0.57;;
18677;SDS011;9469;51.114;13.914;2022-08-01T12:39:34;0.90;;;0.65;;
18677;SDS011;9469;51.114;13.914;2022-08-01T12:50:08;2.40;;;1.15;;
18677;SDS011;9469;51.114;13.914;2022-08-01T12:55:21;2.25;;;0.85;;
18677;SDS011;9469;51.114;13.914;2022-08-01T13:00:35;1.58;;;0.73;;
18677;SDS011;9469;51.114;13.914;2022-08-01T13:05:43;1.42;;;0.85;;
18677;SDS011;9469;51.114;13.914;2022-08-01T13:10:59;2.45;;;0.70;;
18677;SDS011;9469;51.114;13.914;2022-08-01T13:16:07;5.40;;;0.80;;
18677;SDS011;9469;51.114;13.914;2022-08-01T13:21:30;2.10;;;0.40;;
18677;SDS011;9469;51.114;13.914;2022-08-01T13:27:01;1.95;;;0.47;;
18677;SDS011;9469;51.114;13.914;2022-08-01T13:32:14;1.58;;;0.90;;
18677;SDS011;9469;51.114;13.914;2022-08-01T13:37:29;2.97;;;0.88;;
18677;SDS011;9469;51.114;13.914;2022-08-01T13:42:42;4.88;;;1.30;;
18677;SDS011;9469;51.114;13.914;2022-08-01T13:47:50;0.80;;;0.80;;
18677;SDS011;9469;51.114;13.914;2022-08-01T13:53:13;0.57;;;0.57;;
18677;SDS011;9469;51.114;13.914;2022-08-01T13:58:21;4.88;;;0.70;;
18677;SDS011;9469;51.114;13.914;2022-08-01T14:03:29;3.25;;;0.60;;
18677;SDS011;9469;51.114;13.914;2022-08-01T14:08:35;4.38;;;1.08;;
18677;SDS011;9469;51.114;13.914;2022-08-01T14:13:49;5.22;;;1.10;;
18677;SDS011;9469;51.114;13.914;2022-08-01T14:18:56;1.38;;;0.65;;
18677;SDS011;9469;51.114;13.914;2022-08-01T14:24:05;1.90;;;0.65;;
18677;SDS011;9469;51.114;13.914;2022-08-01T14:29:26;3.38;;;0.63;;
18677;SDS011;9469;51.114;13.914;2022-08-01T14:34:51;0.70;;;0.70;;
18677;SDS011;9469;51.114;13.914;2022-08-01T14:39:57;2.97;;;0.77;;
18677;SDS011;9469;51.114;13.914;2022-08-01T14:45:11;1.00;;;1.00;;
18677;SDS011;9469;51.114;13.914;2022-08-01T14:50:17;3.80;;;0.77;;
18677;SDS011;9469;51.114;13.914;2022-08-01T14:55:22;1.95;;;0.70;;
18677;SDS011;9469;51.114;13.914;2022-08-01T15:00:33;3.00;;;0.80;;
18677;SDS011;9469;51.114;13.914;2022-08-01T15:05:39;2.60;;;0.88;;
18677;SDS011;9469;51.114;13.914;2022-08-01T15:10:44;1.77;;;0.90;;
18677;SDS011;9469;51.114;13.914;2022-08-01T15:15:51;3.35;;;0.75;;
18677;SDS011;9469;51.114;13.914;2022-08-01T15:21:00;1.02;;;0.57;;
18677;SDS011;9469;51.114;13.914;2022-08-01T15:26:05;1.58;;;0.60;;
18677;SDS011;9469;51.114;13.914;2022-08-01T15:31:17;2.25;;;0.60;;
18677;SDS011;9469;51.114;13.914;2022-08-01T15:36:22;1.25;;;1.15;;
18677;SDS011;9469;51.114;13.914;2022-08-01T15:41:28;1.48;;;0.73;;
18677;SDS011;9469;51.114;13.914;2022-08-01T15:46:38;0.45;;;0.45;;
18677;SDS011;9469;51.114;13.914;2022-08-01T15:51:43;4.35;;;0.90;;
18677;SDS011;9469;51.114;13.914;2022-08-01T15:56:49;0.88;;;0.50;;
18677;SDS011;9469;51.114;13.914;2022-08-01T16:02:00;2.78;;;0.90;;
18677;SDS011;9469;51.114;13.914;2022-08-01T16:07:06;0.88;;;0.70;;
18677;SDS011;9469;51.114;13.914;2022-08-01T16:12:11;1.20;;;0.60;;
18677;SDS011;9469;51.114;13.914;2022-08-01T16:17:19;1.73;;;0.88;;
18677;SDS011;9469;51.114;13.914;2022-08-01T16:22:24;2.35;;;0.80;;
18677;SDS011;9469;51.114;13.914;2022-08-01T16:27:32;2.47;;;0.77;;
18677;SDS011;9469;51.114;13.914;2022-08-01T16:32:42;0.75;;;0.75;;
18677;SDS011;9469;51.114;13.914;2022-08-01T16:38:05;0.90;;;0.68;;
18677;SDS011;9469;51.114;13.914;2022-08-01T16:43:11;1.20;;;0.77;;
18677;SDS011;9469;51.114;13.914;2022-08-01T16:48:19;1.05;;;0.63;;
18677;SDS011;9469;51.114;13.914;2022-08-01T16:53:28;2.42;;;1.00;;
18677;SDS011;9469;51.114;13.914;2022-08-01T16:58:33;1.75;;;1.10;;
18677;SDS011;9469;51.114;13.914;2022-08-01T17:03:40;0.90;;;0.50;;
18677;SDS011;9469;51.114;13.914;2022-08-01T17:08:54;1.85;;;0.40;;
18677;SDS011;9469;51.114;13.914;2022-08-01T17:13:59;1.98;;;0.57;;
18677;SDS011;9469;51.114;13.914;2022-08-01T17:19:06;1.00;;;0.60;;
18677;SDS011;9469;51.114;13.914;2022-08-01T17:24:11;2.22;;;1.00;;
18677;SDS011;9469;51.114;13.914;2022-08-01T17:29:17;2.78;;;0.88;;
18677;SDS011;9469;51.114;13.914;2022-08-01T17:34:24;1.73;;;0.60;;
18677;SDS011;9469;51.114;13.914;2022-08-01T17:39:31;3.08;;;0.70;;
18677;SDS011;9469;51.114;13.914;2022-08-01T17:44:40;1.30;;;0.70;;
18677;SDS011;9469;51.114;13.914;2022-08-01T17:49:52;1.45;;;0.75;;
18677;SDS011;9469;51.114;13.914;2022-08-01T17:54:57;3.03;;;1.15;;
18677;SDS011;9469;51.114;13.914;2022-08-01T18:00:03;0.63;;;0.63;;
18677;SDS011;9469;51.114;13.914;2022-08-01T18:05:11;2.22;;;0.75;;
18677;SDS011;9469;51.114;13.914;2022-08-01T18:10:17;0.82;;;0.70;;
18677;SDS011;9469;51.114;13.914;2022-08-01T18:15:24;1.00;;;0.65;;
18677;SDS011;9469;51.114;13.914;2022-08-01T18:20:38;1.45;;;0.68;;
18677;SDS011;9469;51.114;13.914;2022-08-01T18:25:43;1.80;;;0.60;;
18677;SDS011;9469;51.114;13.914;2022-08-01T18:30:48;0.50;;;0.40;;
18677;SDS011;9469;51.114;13.914;2022-08-01T18:35:56;3.15;;;1.30;;
18677;SDS011;9469;51.114;13.914;2022-08-01T18:41:04;2.53;;;0.60;;
18677;SDS011;9469;51.114;13.914;2022-08-01T18:46:11;1.45;;;0.60;;
18677;SDS011;9469;51.114;13.914;2022-08-01T18:51:18;2.83;;;0.82;;
18677;SDS011;9469;51.114;13.914;2022-08-01T18:56:25;1.77;;;0.60;;
18677;SDS011;9469;51.114;13.914;2022-08-01T19:01:30;0.95;;;0.40;;
18677;SDS011;9469;51.114;13.914;2022-08-01T19:06:38;1.00;;;0.60;;
18677;SDS011;9469;51.114;13.914;2022-08-01T19:11:47;1.40;;;0.80;;
18677;SDS011;9469;51.114;13.914;2022-08-01T19:16:53;1.00;;;0.93;;
18677;SDS011;9469;51.114;13.914;2022-08-01T19:22:00;0.50;;;0.40;;
18677;SDS011;9469;51.114;13.914;2022-08-01T19:27:06;1.73;;;0.80;;
18677;SDS011;9469;51.114;13.914;2022-08-01T19:32:14;1.55;;;0.80;;
18677;SDS011;9469;51.114;13.914;2022-08-01T19:37:31;2.43;;;1.13;;
18677;SDS011;9469;51.114;13.914;2022-08-01T19:42:47;0.67;;;0.67;;
18677;SDS011;9469;51.114;13.914;2022-08-01T19:47:53;0.57;;;0.57;;
18677;SDS011;9469;51.114;13.914;2022-08-01T19:53:02;0.60;;;0.60;;
18677;SDS011;9469;51.114;13.914;2022-08-01T19:58:07;0.73;;;0.73;;
18677;SDS011;9469;51.114;13.914;2022-08-01T20:03:29;0.97;;;0.70;;
18677;SDS011;9469;51.114;13.914;2022-08-01T20:08:42;3.83;;;0.70;;
18677;SDS011;9469;51.114;13.914;2022-08-01T20:13:47;1.33;;;1.23;;
18677;SDS011;9469;51.114;13.914;2022-08-01T20:18:54;1.40;;;0.90;;
18677;SDS011;9469;51.114;13.914;2022-08-01T20:24:02;1.20;;;1.10;;
18677;SDS011;9469;51.114;13.914;2022-08-01T20:29:12;2.37;;;1.00;;
18677;SDS011;9469;51.114;13.914;2022-08-01T20:34:19;0.93;;;0.90;;
18677;SDS011;9469;51.114;13.914;2022-08-01T20:39:29;2.17;;;1.20;;
18677;SDS011;9469;51.114;13.914;2022-08-01T20:44:37;3.37;;;1.20;;
18677;SDS011;9469;51.114;13.914;2022-08-01T20:49:47;1.53;;;1.20;;
18677;SDS011;9469;51.114;13.914;2022-08-01T20:54:57;1.33;;;0.97;;
18677;SDS011;9469;51.114;13.914;2022-08-01T21:00:03;1.30;;;1.20;;
18677;SDS011;9469;51.114;13.914;2022-08-01T21:05:09;1.07;;;1.03;;
18677;SDS011;9469;51.114;13.914;2022-08-01T21:10:18;1.13;;;1.00;;
18677;SDS011;9469;51.114;13.914;2022-08-01T21:15:28;1.13;;;1.00;;
18677;SDS011;9469;51.114;13.914;2022-08-01T21:20:39;2.70;;;1.40;;
18677;SDS011;9469;51.114;13.914;2022-08-01T21:25:48;1.93;;;1.20;;
18677;SDS011;9469;51.114;13.914;2022-08-01T21:30:56;1.63;;;1.20;;
18677;SDS011;9469;51.114;13.914;2022-08-01T21:36:02;3.73;;;1.17;;
18677;SDS011;9469;51.114;13.914;2022-08-01T21:41:10;1.43;;;1.20;;
18677;SDS011;9469;51.114;13.914;2022-08-01T21:46:17;1.97;;;1.17;;
18677;SDS011;9469;51.114;13.914;2022-08-01T21:51:30;3.73;;;1.03;;
18677;SDS011;9469;51.114;13.914;2022-08-01T21:56:46;1.37;;;1.27;;
18677;SDS011;9469;51.114;13.914;2022-08-01T22:01:57;1.40;;;1.30;;
18677;SDS011;9469;51.114;13.914;2022-08-01T22:07:07;2.70;;;1.33;;
18677;SDS011;9469;51.114;13.914;2022-08-01T22:12:15;2.13;;;1.43;;
18677;SDS011;9469;51.114;13.914;2022-08-01T22:17:22;1.40;;;1.23;;
18677;SDS011;9469;51.114;13.914;2022-08-01T22:22:28;2.70;;;1.53;;
18677;SDS011;9469;51.114;13.914;2022-08-01T22:27:55;1.37;;;1.00;;
18677;SDS011;9469;51.114;13.914;2022-08-01T22:33:10;7.77;;;1.30;;
18677;SDS011;9469;51.114;13.914;2022-08-01T22:38:17;2.03;;;1.40;;
18677;SDS011;9469;51.114;13.914;2022-08-01T22:43:28;2.30;;;1.20;;
18677;SDS011;9469;51.114;13.914;2022-08-01T22:48:43;2.30;;;1.23;;
18677;SDS011;9469;51.114;13.914;2022-08-01T22:53:51;1.47;;;1.10;;
18677;SDS011;9469;51.114;13.914;2022-08-01T22:59:03;1.10;;;1.00;;
18677;SDS011;9469;51.114;13.914;2022-08-01T23:04:15;1.20;;;1.10;;
18677;SDS011;9469;51.114;13.914;2022-08-01T23:09:34;2.27;;;1.20;;
18677;SDS011;9469;51.114;13.914;2022-08-01T23:14:58;4.70;;;1.27;;
18677;SDS011;9469;51.114;13.914;2022-08-01T23:20:05;1.40;;;1.30;;
18677;SDS011;9469;51.114;13.914;2022-08-01T23:25:13;1.10;;;1.00;;
18677;SDS011;9469;51.114;13.914;2022-08-01T23:30:21;3.17;;;1.30;;
18677;SDS011;9469;51.114;13.914;2022-08-01T23:35:28;1.50;;;1.40;;
18677;SDS011;9469;51.114;13.914;2022-08-01T23:40:39;2.37;;;1.37;;
18677;SDS011;9469;51.114;13.914;2022-08-01T23:45:50;2.13;;;1.47;;
18677;SDS011;9469;51.114;13.914;2022-08-01T23:51:05;3.10;;;1.47;;
18677;SDS011;9469;51.114;13.914;2022-08-01T23:56:24;2.13;;;1.43;;
